RJFF

Fukuoka Airport

Fukuoka, Japan
TAF RJFF 162305Z 1700/1806 18006KT 9999 FEW030 BKN040 BECMG 1700/1702 31010KT
Issued Valid From Valid To
Jan-16 @ 23:05 UTC
(6 hours ago)
Jan-17 @ 00:00 UTC
(5 hours ago)
Jan-18 @ 06:00 UTC
(-1 days ago)
Jan-17 @ 00:00 to Jan-18 @ 06:00
TAF RJFF 162305Z 1700/1806 18006KT 9999 FEW030 BKN040
Wind Visibility Clouds
180° at 6 knots 10,000+ meters
  • Few at 3,000' AGL
  • Broken at 4,000' AGL
Becoming Jan-17 @ 00:00 to Jan-18 @ 06:00
BECMG 1700/1702 31010KT
Wind Visibility Clouds
310° at 10 knots 10,000+ meters
  • Few at 3,000' AGL
  • Broken at 4,000' AGL
TAF RJFF 162305Z 1700/1806 18006KT 9999 FEW030 BKN040 BECMG 1700/1702 31010KT
Issued Jan-16 @ 23:05 UTC
(6 hours ago)
Valid From Jan-17 @ 00:00 UTC
(5 hours ago)
Valid To Jan-18 @ 06:00 UTC
(-1 days ago)
Jan-17 @ 00:00 - Jan-18 @ 06:00
Wind Visibility
180° at 6 knots 10,000+ meters
Clouds
  • Few at 3,000' AGL
  • Broken at 4,000' AGL
Becoming Jan-17 @ 00:00 - Jan-18 @ 06:00
Wind Visibility
310° at 10 knots 10,000+ meters
Clouds
  • Few at 3,000' AGL
  • Broken at 4,000' AGL